sensor_id;sensor_type;location;lat;lon;timestamp;P1;durP1;ratioP1;P2;durP2;ratioP2
7205;SDS011;3644;53.480;10.004;2023-12-20T00:01:19;2.10;;;1.87;;
7205;SDS011;3644;53.480;10.004;2023-12-20T00:03:45;8.03;;;2.23;;
7205;SDS011;3644;53.480;10.004;2023-12-20T00:06:10;2.27;;;1.77;;
7205;SDS011;3644;53.480;10.004;2023-12-20T00:08:36;3.40;;;2.43;;
7205;SDS011;3644;53.480;10.004;2023-12-20T00:11:01;7.27;;;2.00;;
7205;SDS011;3644;53.480;10.004;2023-12-20T00:13:27;2.57;;;2.10;;
7205;SDS011;3644;53.480;10.004;2023-12-20T00:15:52;7.70;;;2.63;;
7205;SDS011;3644;53.480;10.004;2023-12-20T00:18:18;6.93;;;2.23;;
7205;SDS011;3644;53.480;10.004;2023-12-20T00:20:43;6.47;;;2.40;;
7205;SDS011;3644;53.480;10.004;2023-12-20T00:23:09;15.37;;;1.87;;
7205;SDS011;3644;53.480;10.004;2023-12-20T00:25:34;6.93;;;2.67;;
7205;SDS011;3644;53.480;10.004;2023-12-20T00:28:00;11.67;;;2.30;;
7205;SDS011;3644;53.480;10.004;2023-12-20T00:30:27;5.90;;;1.83;;
7205;SDS011;3644;53.480;10.004;2023-12-20T00:32:52;8.60;;;2.27;;
7205;SDS011;3644;53.480;10.004;2023-12-20T00:35:18;6.63;;;3.10;;
7205;SDS011;3644;53.480;10.004;2023-12-20T00:37:43;4.63;;;2.33;;
7205;SDS011;3644;53.480;10.004;2023-12-20T00:40:09;2.10;;;1.83;;
7205;SDS011;3644;53.480;10.004;2023-12-20T00:42:35;11.57;;;3.80;;
7205;SDS011;3644;53.480;10.004;2023-12-20T00:45:01;6.53;;;2.27;;
7205;SDS011;3644;53.480;10.004;2023-12-20T00:47:27;14.53;;;3.10;;
7205;SDS011;3644;53.480;10.004;2023-12-20T00:49:53;14.17;;;2.43;;
7205;SDS011;3644;53.480;10.004;2023-12-20T00:52:18;8.33;;;3.83;;
7205;SDS011;3644;53.480;10.004;2023-12-20T00:54:44;5.50;;;2.10;;
7205;SDS011;3644;53.480;10.004;2023-12-20T00:57:10;16.30;;;2.87;;
7205;SDS011;3644;53.480;10.004;2023-12-20T00:59:36;10.87;;;2.07;;
7205;SDS011;3644;53.480;10.004;2023-12-20T01:02:01;8.80;;;2.67;;
7205;SDS011;3644;53.480;10.004;2023-12-20T01:04:27;9.40;;;1.93;;
7205;SDS011;3644;53.480;10.004;2023-12-20T01:06:52;14.73;;;4.00;;
7205;SDS011;3644;53.480;10.004;2023-12-20T01:09:18;6.90;;;2.40;;
7205;SDS011;3644;53.480;10.004;2023-12-20T01:11:44;5.17;;;2.43;;
7205;SDS011;3644;53.480;10.004;2023-12-20T01:14:11;12.13;;;2.40;;
7205;SDS011;3644;53.480;10.004;2023-12-20T01:16:37;5.53;;;2.67;;
7205;SDS011;3644;53.480;10.004;2023-12-20T01:19:02;9.97;;;2.33;;
7205;SDS011;3644;53.480;10.004;2023-12-20T01:21:27;8.77;;;1.73;;
7205;SDS011;3644;53.480;10.004;2023-12-20T01:23:53;6.13;;;2.23;;
7205;SDS011;3644;53.480;10.004;2023-12-20T01:26:18;12.90;;;2.30;;
7205;SDS011;3644;53.480;10.004;2023-12-20T01:28:44;6.03;;;2.77;;
7205;SDS011;3644;53.480;10.004;2023-12-20T01:31:09;4.63;;;2.10;;
7205;SDS011;3644;53.480;10.004;2023-12-20T01:33:35;10.23;;;2.13;;
7205;SDS011;3644;53.480;10.004;2023-12-20T01:36:00;5.07;;;2.17;;
7205;SDS011;3644;53.480;10.004;2023-12-20T01:38:26;4.73;;;2.20;;
7205;SDS011;3644;53.480;10.004;2023-12-20T01:40:51;14.03;;;3.30;;
7205;SDS011;3644;53.480;10.004;2023-12-20T01:43:17;6.40;;;2.53;;
7205;SDS011;3644;53.480;10.004;2023-12-20T01:45:42;4.57;;;1.97;;
7205;SDS011;3644;53.480;10.004;2023-12-20T01:48:08;5.97;;;2.17;;
7205;SDS011;3644;53.480;10.004;2023-12-20T01:50:35;7.73;;;2.37;;
7205;SDS011;3644;53.480;10.004;2023-12-20T01:53:02;5.63;;;3.43;;
7205;SDS011;3644;53.480;10.004;2023-12-20T01:55:30;16.87;;;3.27;;
7205;SDS011;3644;53.480;10.004;2023-12-20T01:57:58;8.80;;;2.67;;
7205;SDS011;3644;53.480;10.004;2023-12-20T02:00:24;7.97;;;2.53;;
7205;SDS011;3644;53.480;10.004;2023-12-20T02:02:52;5.70;;;2.53;;
7205;SDS011;3644;53.480;10.004;2023-12-20T02:05:18;15.40;;;3.40;;
7205;SDS011;3644;53.480;10.004;2023-12-20T02:07:44;9.23;;;6.10;;
7205;SDS011;3644;53.480;10.004;2023-12-20T02:10:09;9.53;;;2.90;;
7205;SDS011;3644;53.480;10.004;2023-12-20T02:12:35;13.23;;;2.17;;
7205;SDS011;3644;53.480;10.004;2023-12-20T02:15:01;9.53;;;2.17;;
7205;SDS011;3644;53.480;10.004;2023-12-20T02:17:27;7.00;;;2.67;;
7205;SDS011;3644;53.480;10.004;2023-12-20T02:19:53;6.60;;;2.30;;
7205;SDS011;3644;53.480;10.004;2023-12-20T02:22:18;8.00;;;2.10;;
7205;SDS011;3644;53.480;10.004;2023-12-20T02:24:44;8.43;;;2.83;;
7205;SDS011;3644;53.480;10.004;2023-12-20T02:27:09;3.37;;;1.93;;
7205;SDS011;3644;53.480;10.004;2023-12-20T02:29:35;6.10;;;2.20;;
7205;SDS011;3644;53.480;10.004;2023-12-20T02:32:01;5.30;;;1.63;;
7205;SDS011;3644;53.480;10.004;2023-12-20T02:34:27;6.80;;;2.50;;
7205;SDS011;3644;53.480;10.004;2023-12-20T02:36:53;2.93;;;2.30;;
7205;SDS011;3644;53.480;10.004;2023-12-20T02:39:19;9.63;;;2.43;;
7205;SDS011;3644;53.480;10.004;2023-12-20T02:41:45;6.80;;;2.50;;
7205;SDS011;3644;53.480;10.004;2023-12-20T02:44:11;5.80;;;1.97;;
7205;SDS011;3644;53.480;10.004;2023-12-20T02:46:37;6.70;;;2.50;;
7205;SDS011;3644;53.480;10.004;2023-12-20T02:49:02;7.13;;;2.80;;
7205;SDS011;3644;53.480;10.004;2023-12-20T02:51:28;19.10;;;4.00;;
7205;SDS011;3644;53.480;10.004;2023-12-20T02:53:53;5.03;;;2.80;;
7205;SDS011;3644;53.480;10.004;2023-12-20T02:56:19;8.50;;;3.20;;
7205;SDS011;3644;53.480;10.004;2023-12-20T02:58:44;11.00;;;2.87;;
7205;SDS011;3644;53.480;10.004;2023-12-20T03:01:09;8.57;;;3.13;;
7205;SDS011;3644;53.480;10.004;2023-12-20T03:03:35;8.40;;;2.43;;
7205;SDS011;3644;53.480;10.004;2023-12-20T03:06:00;6.40;;;2.70;;
7205;SDS011;3644;53.480;10.004;2023-12-20T03:08:26;6.73;;;2.33;;
7205;SDS011;3644;53.480;10.004;2023-12-20T03:10:51;6.30;;;2.50;;
7205;SDS011;3644;53.480;10.004;2023-12-20T03:13:18;10.53;;;2.70;;
7205;SDS011;3644;53.480;10.004;2023-12-20T03:15:44;4.40;;;2.30;;
7205;SDS011;3644;53.480;10.004;2023-12-20T03:18:10;14.03;;;3.17;;
7205;SDS011;3644;53.480;10.004;2023-12-20T03:20:35;8.43;;;2.10;;
7205;SDS011;3644;53.480;10.004;2023-12-20T03:23:01;12.53;;;2.80;;
7205;SDS011;3644;53.480;10.004;2023-12-20T03:25:26;7.33;;;3.17;;
7205;SDS011;3644;53.480;10.004;2023-12-20T03:27:52;4.37;;;1.90;;
7205;SDS011;3644;53.480;10.004;2023-12-20T03:30:18;2.03;;;1.80;;
7205;SDS011;3644;53.480;10.004;2023-12-20T03:32:44;9.20;;;2.73;;
7205;SDS011;3644;53.480;10.004;2023-12-20T03:35:09;7.70;;;2.47;;
7205;SDS011;3644;53.480;10.004;2023-12-20T03:37:35;10.30;;;2.77;;
7205;SDS011;3644;53.480;10.004;2023-12-20T03:40:01;5.43;;;1.80;;
7205;SDS011;3644;53.480;10.004;2023-12-20T03:42:27;5.63;;;2.47;;
7205;SDS011;3644;53.480;10.004;2023-12-20T03:44:52;8.33;;;2.00;;
7205;SDS011;3644;53.480;10.004;2023-12-20T03:47:18;6.57;;;2.10;;
7205;SDS011;3644;53.480;10.004;2023-12-20T03:49:43;4.07;;;2.27;;
7205;SDS011;3644;53.480;10.004;2023-12-20T03:52:09;4.07;;;2.40;;
7205;SDS011;3644;53.480;10.004;2023-12-20T03:54:37;11.50;;;2.60;;
7205;SDS011;3644;53.480;10.004;2023-12-20T03:57:02;8.63;;;2.80;;
7205;SDS011;3644;53.480;10.004;2023-12-20T03:59:28;9.80;;;2.27;;
7205;SDS011;3644;53.480;10.004;2023-12-20T04:01:54;13.80;;;3.13;;
7205;SDS011;3644;53.480;10.004;2023-12-20T04:04:20;14.83;;;3.67;;
7205;SDS011;3644;53.480;10.004;2023-12-20T04:06:45;15.23;;;2.93;;
7205;SDS011;3644;53.480;10.004;2023-12-20T04:09:11;10.53;;;2.57;;
7205;SDS011;3644;53.480;10.004;2023-12-20T04:11:37;6.97;;;2.63;;
7205;SDS011;3644;53.480;10.004;2023-12-20T04:14:02;5.73;;;2.60;;
7205;SDS011;3644;53.480;10.004;2023-12-20T04:16:29;3.83;;;2.30;;
7205;SDS011;3644;53.480;10.004;2023-12-20T04:18:55;11.13;;;2.33;;
7205;SDS011;3644;53.480;10.004;2023-12-20T04:21:21;10.17;;;3.50;;
7205;SDS011;3644;53.480;10.004;2023-12-20T04:23:46;5.50;;;2.53;;
7205;SDS011;3644;53.480;10.004;2023-12-20T04:26:12;12.30;;;3.00;;
7205;SDS011;3644;53.480;10.004;2023-12-20T04:28:37;8.93;;;3.47;;
7205;SDS011;3644;53.480;10.004;2023-12-20T04:31:03;7.30;;;3.63;;
7205;SDS011;3644;53.480;10.004;2023-12-20T04:33:28;4.20;;;2.70;;
7205;SDS011;3644;53.480;10.004;2023-12-20T04:35:54;6.80;;;2.70;;
7205;SDS011;3644;53.480;10.004;2023-12-20T04:38:20;10.43;;;3.57;;
7205;SDS011;3644;53.480;10.004;2023-12-20T04:40:45;9.80;;;2.93;;
7205;SDS011;3644;53.480;10.004;2023-12-20T04:43:11;10.03;;;3.30;;
7205;SDS011;3644;53.480;10.004;2023-12-20T04:45:36;10.40;;;3.40;;
7205;SDS011;3644;53.480;10.004;2023-12-20T04:48:02;10.00;;;3.43;;
7205;SDS011;3644;53.480;10.004;2023-12-20T04:50:27;12.23;;;3.47;;
7205;SDS011;3644;53.480;10.004;2023-12-20T04:52:53;8.83;;;2.97;;
7205;SDS011;3644;53.480;10.004;2023-12-20T04:55:18;5.30;;;2.93;;
7205;SDS011;3644;53.480;10.004;2023-12-20T04:57:45;6.20;;;3.10;;
7205;SDS011;3644;53.480;10.004;2023-12-20T05:00:10;11.73;;;2.80;;
7205;SDS011;3644;53.480;10.004;2023-12-20T05:02:37;8.53;;;2.50;;
7205;SDS011;3644;53.480;10.004;2023-12-20T05:05:02;12.73;;;4.17;;
7205;SDS011;3644;53.480;10.004;2023-12-20T05:07:28;8.60;;;2.87;;
7205;SDS011;3644;53.480;10.004;2023-12-20T05:09:53;12.20;;;2.77;;
7205;SDS011;3644;53.480;10.004;2023-12-20T05:12:19;9.30;;;2.90;;
7205;SDS011;3644;53.480;10.004;2023-12-20T05:14:44;8.13;;;2.87;;
7205;SDS011;3644;53.480;10.004;2023-12-20T05:17:11;13.13;;;3.60;;
7205;SDS011;3644;53.480;10.004;2023-12-20T05:19:36;8.80;;;3.80;;
7205;SDS011;3644;53.480;10.004;2023-12-20T05:22:02;10.03;;;3.27;;
7205;SDS011;3644;53.480;10.004;2023-12-20T05:24:27;18.77;;;3.17;;
7205;SDS011;3644;53.480;10.004;2023-12-20T05:26:53;9.80;;;3.20;;
7205;SDS011;3644;53.480;10.004;2023-12-20T05:29:19;23.50;;;4.10;;
7205;SDS011;3644;53.480;10.004;2023-12-20T05:31:44;6.87;;;3.40;;
7205;SDS011;3644;53.480;10.004;2023-12-20T05:34:10;19.23;;;4.13;;
7205;SDS011;3644;53.480;10.004;2023-12-20T05:36:36;11.97;;;3.30;;
7205;SDS011;3644;53.480;10.004;2023-12-20T05:39:01;21.13;;;4.67;;
7205;SDS011;3644;53.480;10.004;2023-12-20T05:41:28;12.50;;;2.93;;
7205;SDS011;3644;53.480;10.004;2023-12-20T05:43:54;13.47;;;3.70;;
7205;SDS011;3644;53.480;10.004;2023-12-20T05:46:20;12.80;;;3.93;;
7205;SDS011;3644;53.480;10.004;2023-12-20T05:48:46;12.53;;;4.23;;
7205;SDS011;3644;53.480;10.004;2023-12-20T05:51:12;14.47;;;3.53;;
7205;SDS011;3644;53.480;10.004;2023-12-20T05:53:38;12.23;;;3.20;;
7205;SDS011;3644;53.480;10.004;2023-12-20T05:56:03;14.43;;;4.63;;
7205;SDS011;3644;53.480;10.004;2023-12-20T05:58:29;6.33;;;2.53;;
7205;SDS011;3644;53.480;10.004;2023-12-20T06:00:55;14.17;;;3.50;;
7205;SDS011;3644;53.480;10.004;2023-12-20T06:03:20;11.07;;;2.80;;
7205;SDS011;3644;53.480;10.004;2023-12-20T06:05:46;7.23;;;2.33;;
7205;SDS011;3644;53.480;10.004;2023-12-20T06:08:11;5.13;;;3.20;;
7205;SDS011;3644;53.480;10.004;2023-12-20T06:10:37;7.87;;;3.20;;
7205;SDS011;3644;53.480;10.004;2023-12-20T06:13:02;5.90;;;2.53;;
7205;SDS011;3644;53.480;10.004;2023-12-20T06:15:29;6.40;;;2.60;;
7205;SDS011;3644;53.480;10.004;2023-12-20T06:17:55;14.10;;;2.27;;
7205;SDS011;3644;53.480;10.004;2023-12-20T06:20:20;8.60;;;2.90;;
7205;SDS011;3644;53.480;10.004;2023-12-20T06:22:46;3.90;;;3.10;;
7205;SDS011;3644;53.480;10.004;2023-12-20T06:25:11;17.00;;;3.03;;
7205;SDS011;3644;53.480;10.004;2023-12-20T06:27:37;6.83;;;2.33;;
7205;SDS011;3644;53.480;10.004;2023-12-20T06:30:03;9.03;;;2.83;;
7205;SDS011;3644;53.480;10.004;2023-12-20T06:32:29;9.77;;;3.80;;
7205;SDS011;3644;53.480;10.004;2023-12-20T06:34:54;7.20;;;3.00;;
7205;SDS011;3644;53.480;10.004;2023-12-20T06:37:20;12.93;;;2.70;;
7205;SDS011;3644;53.480;10.004;2023-12-20T06:39:45;8.43;;;2.53;;
7205;SDS011;3644;53.480;10.004;2023-12-20T06:42:11;9.90;;;3.80;;
7205;SDS011;3644;53.480;10.004;2023-12-20T06:44:37;7.70;;;2.93;;
7205;SDS011;3644;53.480;10.004;2023-12-20T06:47:03;7.27;;;3.30;;
7205;SDS011;3644;53.480;10.004;2023-12-20T06:49:29;12.63;;;2.70;;
7205;SDS011;3644;53.480;10.004;2023-12-20T06:51:55;3.87;;;2.20;;
7205;SDS011;3644;53.480;10.004;2023-12-20T06:54:20;13.43;;;2.60;;
7205;SDS011;3644;53.480;10.004;2023-12-20T06:56:46;27.57;;;2.90;;
7205;SDS011;3644;53.480;10.004;2023-12-20T06:59:11;12.20;;;2.63;;
7205;SDS011;3644;53.480;10.004;2023-12-20T07:01:37;14.53;;;2.97;;
7205;SDS011;3644;53.480;10.004;2023-12-20T07:04:02;20.50;;;3.10;;
7205;SDS011;3644;53.480;10.004;2023-12-20T07:06:28;9.00;;;2.83;;
7205;SDS011;3644;53.480;10.004;2023-12-20T07:08:54;7.37;;;3.57;;
7205;SDS011;3644;53.480;10.004;2023-12-20T07:11:19;3.90;;;2.60;;
7205;SDS011;3644;53.480;10.004;2023-12-20T07:13:45;10.17;;;3.60;;
7205;SDS011;3644;53.480;10.004;2023-12-20T07:16:10;4.63;;;2.53;;
7205;SDS011;3644;53.480;10.004;2023-12-20T07:18:36;14.50;;;3.00;;
7205;SDS011;3644;53.480;10.004;2023-12-20T07:21:02;8.97;;;2.67;;
7205;SDS011;3644;53.480;10.004;2023-12-20T07:23:28;9.60;;;2.83;;
7205;SDS011;3644;53.480;10.004;2023-12-20T07:25:54;4.90;;;3.13;;
7205;SDS011;3644;53.480;10.004;2023-12-20T07:28:19;10.13;;;3.13;;
7205;SDS011;3644;53.480;10.004;2023-12-20T07:30:45;12.50;;;2.93;;
7205;SDS011;3644;53.480;10.004;2023-12-20T07:33:10;8.50;;;3.47;;
7205;SDS011;3644;53.480;10.004;2023-12-20T07:35:37;17.33;;;4.00;;
7205;SDS011;3644;53.480;10.004;2023-12-20T07:38:03;7.70;;;3.03;;
7205;SDS011;3644;53.480;10.004;2023-12-20T07:40:28;21.40;;;3.37;;
7205;SDS011;3644;53.480;10.004;2023-12-20T07:42:54;9.73;;;3.23;;
7205;SDS011;3644;53.480;10.004;2023-12-20T07:45:19;12.10;;;2.70;;
7205;SDS011;3644;53.480;10.004;2023-12-20T07:47:45;9.03;;;2.83;;
7205;SDS011;3644;53.480;10.004;2023-12-20T07:50:10;9.30;;;3.27;;
7205;SDS011;3644;53.480;10.004;2023-12-20T07:52:36;11.47;;;2.90;;
7205;SDS011;3644;53.480;10.004;2023-12-20T07:55:02;8.73;;;3.37;;
7205;SDS011;3644;53.480;10.004;2023-12-20T07:57:29;13.03;;;3.10;;
7205;SDS011;3644;53.480;10.004;2023-12-20T07:59:55;15.27;;;3.40;;
7205;SDS011;3644;53.480;10.004;2023-12-20T08:02:21;9.93;;;3.03;;
7205;SDS011;3644;53.480;10.004;2023-12-20T08:04:46;7.77;;;2.77;;
7205;SDS011;3644;53.480;10.004;2023-12-20T08:07:12;9.47;;;4.13;;
7205;SDS011;3644;53.480;10.004;2023-12-20T08:09:37;17.57;;;4.60;;
7205;SDS011;3644;53.480;10.004;2023-12-20T08:12:03;12.90;;;4.83;;
7205;SDS011;3644;53.480;10.004;2023-12-20T08:14:28;10.87;;;2.93;;
7205;SDS011;3644;53.480;10.004;2023-12-20T08:16:54;10.23;;;3.10;;
7205;SDS011;3644;53.480;10.004;2023-12-20T08:19:19;6.67;;;3.10;;
7205;SDS011;3644;53.480;10.004;2023-12-20T08:21:45;17.73;;;3.33;;
7205;SDS011;3644;53.480;10.004;2023-12-20T08:24:10;9.50;;;2.63;;
7205;SDS011;3644;53.480;10.004;2023-12-20T08:26:36;11.17;;;3.50;;
7205;SDS011;3644;53.480;10.004;2023-12-20T08:29:01;19.53;;;3.90;;
7205;SDS011;3644;53.480;10.004;2023-12-20T08:31:27;6.57;;;3.10;;
7205;SDS011;3644;53.480;10.004;2023-12-20T08:33:52;7.60;;;3.30;;
7205;SDS011;3644;53.480;10.004;2023-12-20T08:36:19;10.03;;;3.67;;
7205;SDS011;3644;53.480;10.004;2023-12-20T08:38:46;10.33;;;2.67;;
7205;SDS011;3644;53.480;10.004;2023-12-20T08:41:12;11.37;;;3.40;;
7205;SDS011;3644;53.480;10.004;2023-12-20T08:43:38;18.03;;;2.63;;
7205;SDS011;3644;53.480;10.004;2023-12-20T08:46:05;14.03;;;2.67;;
7205;SDS011;3644;53.480;10.004;2023-12-20T08:48:31;7.00;;;2.23;;
7205;SDS011;3644;53.480;10.004;2023-12-20T08:50:56;7.20;;;2.70;;
7205;SDS011;3644;53.480;10.004;2023-12-20T08:53:22;12.43;;;2.87;;
7205;SDS011;3644;53.480;10.004;2023-12-20T08:55:47;14.60;;;3.53;;
7205;SDS011;3644;53.480;10.004;2023-12-20T08:58:13;15.40;;;3.33;;
7205;SDS011;3644;53.480;10.004;2023-12-20T09:00:39;12.90;;;3.27;;
7205;SDS011;3644;53.480;10.004;2023-12-20T09:03:04;7.13;;;2.57;;
7205;SDS011;3644;53.480;10.004;2023-12-20T09:05:30;2.87;;;1.90;;
7205;SDS011;3644;53.480;10.004;2023-12-20T09:07:56;7.90;;;2.20;;
7205;SDS011;3644;53.480;10.004;2023-12-20T09:10:21;11.07;;;2.40;;
7205;SDS011;3644;53.480;10.004;2023-12-20T09:12:48;11.60;;;2.33;;
7205;SDS011;3644;53.480;10.004;2023-12-20T09:15:19;7.73;;;2.60;;
7205;SDS011;3644;53.480;10.004;2023-12-20T09:17:44;11.50;;;2.73;;
7205;SDS011;3644;53.480;10.004;2023-12-20T09:20:10;6.33;;;1.73;;
7205;SDS011;3644;53.480;10.004;2023-12-20T09:22:35;1.83;;;1.73;;
7205;SDS011;3644;53.480;10.004;2023-12-20T09:25:03;4.63;;;1.90;;
7205;SDS011;3644;53.480;10.004;2023-12-20T09:27:29;5.67;;;1.93;;
7205;SDS011;3644;53.480;10.004;2023-12-20T09:29:55;7.13;;;2.03;;
7205;SDS011;3644;53.480;10.004;2023-12-20T09:32:20;11.73;;;1.67;;
7205;SDS011;3644;53.480;10.004;2023-12-20T09:34:47;7.60;;;2.33;;
7205;SDS011;3644;53.480;10.004;2023-12-20T09:37:12;3.73;;;1.63;;
7205;SDS011;3644;53.480;10.004;2023-12-20T09:39:38;1.53;;;1.43;;
7205;SDS011;3644;53.480;10.004;2023-12-20T09:42:04;1.47;;;1.20;;
7205;SDS011;3644;53.480;10.004;2023-12-20T09:44:31;3.13;;;1.30;;
7205;SDS011;3644;53.480;10.004;2023-12-20T09:46:59;1.83;;;1.53;;
7205;SDS011;3644;53.480;10.004;2023-12-20T09:49:30;6.13;;;1.70;;
7205;SDS011;3644;53.480;10.004;2023-12-20T09:51:57;6.93;;;1.30;;
7205;SDS011;3644;53.480;10.004;2023-12-20T09:54:24;1.90;;;1.10;;
7205;SDS011;3644;53.480;10.004;2023-12-20T09:56:51;1.20;;;1.10;;
7205;SDS011;3644;53.480;10.004;2023-12-20T09:59:17;3.90;;;1.50;;
7205;SDS011;3644;53.480;10.004;2023-12-20T10:01:42;1.13;;;0.90;;
7205;SDS011;3644;53.480;10.004;2023-12-20T10:04:09;1.40;;;1.30;;
7205;SDS011;3644;53.480;10.004;2023-12-20T10:06:40;2.80;;;1.50;;
7205;SDS011;3644;53.480;10.004;2023-12-20T10:09:07;4.70;;;1.60;;
7205;SDS011;3644;53.480;10.004;2023-12-20T10:11:34;0.93;;;0.93;;
7205;SDS011;3644;53.480;10.004;2023-12-20T10:14:04;4.60;;;1.17;;
7205;SDS011;3644;53.480;10.004;2023-12-20T10:16:30;1.00;;;1.00;;
7205;SDS011;3644;53.480;10.004;2023-12-20T10:18:55;3.50;;;1.93;;
7205;SDS011;3644;53.480;10.004;2023-12-20T10:21:22;3.07;;;1.43;;
7205;SDS011;3644;53.480;10.004;2023-12-20T10:23:48;1.90;;;1.43;;
7205;SDS011;3644;53.480;10.004;2023-12-20T10:26:24;2.87;;;1.63;;
7205;SDS011;3644;53.480;10.004;2023-12-20T10:28:51;2.97;;;1.53;;
7205;SDS011;3644;53.480;10.004;2023-12-20T10:31:32;1.80;;;1.40;;
7205;SDS011;3644;53.480;10.004;2023-12-20T10:34:00;8.83;;;1.60;;
7205;SDS011;3644;53.480;10.004;2023-12-20T10:36:27;1.17;;;1.17;;
7205;SDS011;3644;53.480;10.004;2023-12-20T10:38:57;1.87;;;1.50;;
7205;SDS011;3644;53.480;10.004;2023-12-20T10:41:29;1.10;;;1.10;;
7205;SDS011;3644;53.480;10.004;2023-12-20T10:43:58;2.53;;;2.33;;
7205;SDS011;3644;53.480;10.004;2023-12-20T10:46:25;2.03;;;1.93;;
7205;SDS011;3644;53.480;10.004;2023-12-20T10:48:53;5.40;;;1.80;;
7205;SDS011;3644;53.480;10.004;2023-12-20T10:51:19;4.33;;;2.53;;
7205;SDS011;3644;53.480;10.004;2023-12-20T10:53:49;7.33;;;1.73;;
7205;SDS011;3644;53.480;10.004;2023-12-20T10:56:16;14.73;;;2.03;;
7205;SDS011;3644;53.480;10.004;2023-12-20T10:58:43;18.67;;;2.90;;
7205;SDS011;3644;53.480;10.004;2023-12-20T11:01:09;3.77;;;1.73;;
7205;SDS011;3644;53.480;10.004;2023-12-20T11:03:38;2.43;;;2.07;;
7205;SDS011;3644;53.480;10.004;2023-12-20T11:06:18;1.50;;;1.40;;
7205;SDS011;3644;53.480;10.004;2023-12-20T11:09:00;4.00;;;1.40;;
7205;SDS011;3644;53.480;10.004;2023-12-20T11:17:09;7.27;;;1.90;;
7205;SDS011;3644;53.480;10.004;2023-12-20T11:22:22;4.60;;;1.60;;
7205;SDS011;3644;53.480;10.004;2023-12-20T11:24:50;3.80;;;1.97;;
7205;SDS011;3644;53.480;10.004;2023-12-20T11:27:16;5.13;;;1.97;;
7205;SDS011;3644;53.480;10.004;2023-12-20T11:29:50;4.50;;;1.90;;
7205;SDS011;3644;53.480;10.004;2023-12-20T11:35:01;8.20;;;3.30;;
7205;SDS011;3644;53.480;10.004;2023-12-20T11:37:43;11.70;;;2.43;;
7205;SDS011;3644;53.480;10.004;2023-12-20T11:40:13;6.13;;;2.03;;
7205;SDS011;3644;53.480;10.004;2023-12-20T11:42:43;3.00;;;1.70;;
7205;SDS011;3644;53.480;10.004;2023-12-20T11:47:36;1.93;;;1.73;;
7205;SDS011;3644;53.480;10.004;2023-12-20T11:50:02;4.67;;;2.07;;
7205;SDS011;3644;53.480;10.004;2023-12-20T11:52:29;6.60;;;1.93;;
7205;SDS011;3644;53.480;10.004;2023-12-20T11:54:55;3.17;;;2.30;;
7205;SDS011;3644;53.480;10.004;2023-12-20T11:57:21;5.13;;;2.70;;
7205;SDS011;3644;53.480;10.004;2023-12-20T11:59:47;8.97;;;2.53;;
7205;SDS011;3644;53.480;10.004;2023-12-20T12:02:12;6.40;;;2.20;;
7205;SDS011;3644;53.480;10.004;2023-12-20T12:04:40;7.63;;;1.83;;
7205;SDS011;3644;53.480;10.004;2023-12-20T12:07:06;12.27;;;1.93;;
7205;SDS011;3644;53.480;10.004;2023-12-20T12:09:32;12.40;;;2.87;;
7205;SDS011;3644;53.480;10.004;2023-12-20T12:11:58;9.80;;;2.10;;
7205;SDS011;3644;53.480;10.004;2023-12-20T12:14:24;5.77;;;2.23;;
7205;SDS011;3644;53.480;10.004;2023-12-20T12:16:49;11.90;;;2.37;;
7205;SDS011;3644;53.480;10.004;2023-12-20T12:19:21;6.93;;;2.53;;
7205;SDS011;3644;53.480;10.004;2023-12-20T12:21:48;8.43;;;2.10;;
7205;SDS011;3644;53.480;10.004;2023-12-20T12:24:14;4.53;;;1.50;;
7205;SDS011;3644;53.480;10.004;2023-12-20T12:26:40;5.93;;;1.83;;
7205;SDS011;3644;53.480;10.004;2023-12-20T12:29:08;5.23;;;2.40;;
7205;SDS011;3644;53.480;10.004;2023-12-20T12:31:34;9.00;;;1.90;;
7205;SDS011;3644;53.480;10.004;2023-12-20T12:34:00;7.37;;;2.90;;
7205;SDS011;3644;53.480;10.004;2023-12-20T12:36:26;2.53;;;1.67;;
7205;SDS011;3644;53.480;10.004;2023-12-20T12:38:53;6.77;;;2.17;;
7205;SDS011;3644;53.480;10.004;2023-12-20T12:41:21;8.30;;;2.67;;
7205;SDS011;3644;53.480;10.004;2023-12-20T12:43:47;5.43;;;2.17;;
7205;SDS011;3644;53.480;10.004;2023-12-20T12:46:12;4.30;;;2.70;;
7205;SDS011;3644;53.480;10.004;2023-12-20T12:48:38;9.73;;;1.73;;
7205;SDS011;3644;53.480;10.004;2023-12-20T12:51:04;6.17;;;1.87;;
7205;SDS011;3644;53.480;10.004;2023-12-20T12:53:29;12.87;;;3.97;;
7205;SDS011;3644;53.480;10.004;2023-12-20T12:55:55;5.97;;;2.40;;
7205;SDS011;3644;53.480;10.004;2023-12-20T12:58:20;7.33;;;2.10;;
7205;SDS011;3644;53.480;10.004;2023-12-20T13:00:47;4.53;;;1.90;;
7205;SDS011;3644;53.480;10.004;2023-12-20T13:03:12;4.80;;;2.40;;
7205;SDS011;3644;53.480;10.004;2023-12-20T13:05:38;8.93;;;2.73;;
7205;SDS011;3644;53.480;10.004;2023-12-20T13:08:03;11.93;;;3.00;;
7205;SDS011;3644;53.480;10.004;2023-12-20T13:10:30;2.80;;;2.50;;
7205;SDS011;3644;53.480;10.004;2023-12-20T13:12:55;11.00;;;2.37;;
7205;SDS011;3644;53.480;10.004;2023-12-20T13:15:21;9.17;;;2.40;;
7205;SDS011;3644;53.480;10.004;2023-12-20T13:17:46;4.63;;;2.10;;
7205;SDS011;3644;53.480;10.004;2023-12-20T13:20:11;11.40;;;2.00;;
7205;SDS011;3644;53.480;10.004;2023-12-20T13:22:37;5.20;;;2.10;;
7205;SDS011;3644;53.480;10.004;2023-12-20T13:25:03;5.90;;;2.23;;
7205;SDS011;3644;53.480;10.004;2023-12-20T13:27:28;9.53;;;2.53;;
7205;SDS011;3644;53.480;10.004;2023-12-20T13:29:54;14.70;;;4.40;;
7205;SDS011;3644;53.480;10.004;2023-12-20T13:32:19;9.00;;;1.97;;
7205;SDS011;3644;53.480;10.004;2023-12-20T13:34:45;11.73;;;2.10;;
7205;SDS011;3644;53.480;10.004;2023-12-20T13:37:11;11.93;;;2.33;;
7205;SDS011;3644;53.480;10.004;2023-12-20T13:39:37;15.03;;;3.23;;
7205;SDS011;3644;53.480;10.004;2023-12-20T13:42:02;5.93;;;2.53;;
7205;SDS011;3644;53.480;10.004;2023-12-20T13:44:30;17.33;;;4.33;;
7205;SDS011;3644;53.480;10.004;2023-12-20T13:46:55;13.93;;;3.37;;
7205;SDS011;3644;53.480;10.004;2023-12-20T13:49:21;5.10;;;2.27;;
7205;SDS011;3644;53.480;10.004;2023-12-20T13:51:50;5.93;;;3.20;;
7205;SDS011;3644;53.480;10.004;2023-12-20T13:54:16;25.13;;;7.00;;
7205;SDS011;3644;53.480;10.004;2023-12-20T13:56:44;11.97;;;5.07;;
7205;SDS011;3644;53.480;10.004;2023-12-20T13:59:10;17.63;;;6.30;;
7205;SDS011;3644;53.480;10.004;2023-12-20T14:01:37;30.77;;;7.40;;
7205;SDS011;3644;53.480;10.004;2023-12-20T14:04:03;18.60;;;5.10;;
7205;SDS011;3644;53.480;10.004;2023-12-20T14:06:28;22.80;;;7.70;;
7205;SDS011;3644;53.480;10.004;2023-12-20T14:08:54;20.83;;;5.50;;
7205;SDS011;3644;53.480;10.004;2023-12-20T14:11:20;23.47;;;7.10;;
7205;SDS011;3644;53.480;10.004;2023-12-20T14:13:45;32.27;;;7.57;;
7205;SDS011;3644;53.480;10.004;2023-12-20T14:16:11;22.70;;;9.13;;
7205;SDS011;3644;53.480;10.004;2023-12-20T14:18:37;30.03;;;10.00;;
7205;SDS011;3644;53.480;10.004;2023-12-20T14:21:03;31.07;;;8.40;;
7205;SDS011;3644;53.480;10.004;2023-12-20T14:23:28;30.20;;;11.47;;
7205;SDS011;3644;53.480;10.004;2023-12-20T14:25:54;21.23;;;6.90;;
7205;SDS011;3644;53.480;10.004;2023-12-20T14:28:21;24.03;;;9.30;;
7205;SDS011;3644;53.480;10.004;2023-12-20T14:30:46;25.40;;;5.43;;
7205;SDS011;3644;53.480;10.004;2023-12-20T14:33:12;27.33;;;7.30;;
7205;SDS011;3644;53.480;10.004;2023-12-20T14:35:38;22.80;;;6.30;;
7205;SDS011;3644;53.480;10.004;2023-12-20T14:38:05;38.27;;;8.07;;
7205;SDS011;3644;53.480;10.004;2023-12-20T14:40:31;47.50;;;16.03;;
7205;SDS011;3644;53.480;10.004;2023-12-20T14:42:56;25.80;;;9.50;;
7205;SDS011;3644;53.480;10.004;2023-12-20T14:45:22;33.97;;;8.10;;
7205;SDS011;3644;53.480;10.004;2023-12-20T14:47:47;36.87;;;9.57;;
7205;SDS011;3644;53.480;10.004;2023-12-20T14:50:14;15.50;;;6.67;;
7205;SDS011;3644;53.480;10.004;2023-12-20T14:52:43;53.87;;;11.83;;
7205;SDS011;3644;53.480;10.004;2023-12-20T14:55:10;102.47;;;25.40;;
7205;SDS011;3644;53.480;10.004;2023-12-20T14:57:35;120.67;;;37.43;;
7205;SDS011;3644;53.480;10.004;2023-12-20T15:00:01;107.00;;;36.80;;
7205;SDS011;3644;53.480;10.004;2023-12-20T15:02:27;22.60;;;8.90;;